createdAt,value
2022-07-27T00:01:02.646Z,17.45
2022-07-27T00:03:29.614Z,17.53
2022-07-27T00:05:59.036Z,17.50
2022-07-27T00:08:26.055Z,17.45
2022-07-27T00:10:55.629Z,17.59
2022-07-27T00:13:22.753Z,17.68
2022-07-27T00:15:52.639Z,17.70
2022-07-27T00:18:21.894Z,17.62
2022-07-27T00:20:48.941Z,17.49
2022-07-27T00:23:15.807Z,17.34
2022-07-27T00:25:42.768Z,17.50
2022-07-27T00:28:09.656Z,17.49
2022-07-27T00:30:41.329Z,17.45
2022-07-27T00:33:08.476Z,17.38
2022-07-27T00:35:35.846Z,17.51
2022-07-27T00:38:05.632Z,17.58
2022-07-27T00:40:32.534Z,17.59
2022-07-27T00:42:59.434Z,17.56
2022-07-27T00:45:26.340Z,17.71
2022-07-27T00:47:55.702Z,17.48
2022-07-27T00:50:25.215Z,17.55
2022-07-27T00:52:52.375Z,17.43
2022-07-27T00:55:21.805Z,17.41
2022-07-27T00:57:57.874Z,17.46
2022-07-27T01:00:27.426Z,17.43
2022-07-27T01:02:59.229Z,17.35
2022-07-27T01:05:35.930Z,17.37
2022-07-27T01:08:08.410Z,17.44
2022-07-27T01:10:36.043Z,17.23
2022-07-27T01:13:12.693Z,17.36
2022-07-27T01:15:41.792Z,17.04
2022-07-27T01:18:36.807Z,16.99
2022-07-27T01:21:09.055Z,16.92
2022-07-27T01:23:36.024Z,17.00
2022-07-27T01:26:07.848Z,16.86
2022-07-27T01:28:34.741Z,17.05
2022-07-27T01:31:01.712Z,17.25
2022-07-27T01:33:28.660Z,17.09
2022-07-27T01:35:59.306Z,16.73
2022-07-27T01:38:26.602Z,16.82
2022-07-27T01:40:54.437Z,16.89
2022-07-27T01:43:21.897Z,16.77
2022-07-27T01:45:51.327Z,16.78
2022-07-27T01:48:20.840Z,16.85
2022-07-27T01:50:51.336Z,16.80
2022-07-27T01:53:19.101Z,16.76
2022-07-27T01:55:46.059Z,16.56
2022-07-27T01:58:13.132Z,16.67
2022-07-27T02:00:42.257Z,16.60
2022-07-27T02:03:10.677Z,16.49
2022-07-27T02:05:39.209Z,16.48
2022-07-27T02:08:09.353Z,16.58
2022-07-27T02:10:37.544Z,16.59
2022-07-27T02:13:22.249Z,16.66
2022-07-27T02:15:49.967Z,16.73
2022-07-27T02:18:36.023Z,16.75
2022-07-27T02:21:05.990Z,16.76
2022-07-27T02:23:37.655Z,16.70
2022-07-27T02:26:07.496Z,16.81
2022-07-27T02:28:35.670Z,16.78
2022-07-27T02:31:05.552Z,16.72
2022-07-27T02:33:38.388Z,16.77
2022-07-27T02:36:05.732Z,16.68
2022-07-27T02:38:34.800Z,16.77
2022-07-27T02:41:07.271Z,16.77
2022-07-27T02:43:34.209Z,16.64
2022-07-27T02:46:06.042Z,16.47
2022-07-27T02:48:33.716Z,16.51
2022-07-27T02:51:01.865Z,16.58
2022-07-27T02:53:33.471Z,16.63
2022-07-27T02:56:05.299Z,16.73
2022-07-27T02:58:32.160Z,16.78
2022-07-27T03:01:02.022Z,16.65
2022-07-27T03:03:35.990Z,16.45
2022-07-27T03:06:06.753Z,16.63
2022-07-27T03:08:34.523Z,16.84
2022-07-27T03:11:01.561Z,16.94
2022-07-27T03:13:29.107Z,17.07
2022-07-27T03:15:56.536Z,17.06
2022-07-27T03:18:25.653Z,16.91
2022-07-27T03:20:52.754Z,16.77
2022-07-27T03:23:24.392Z,16.73
2022-07-27T03:25:51.417Z,16.90
2022-07-27T03:28:18.335Z,16.83
2022-07-27T03:30:48.237Z,16.87
2022-07-27T03:33:15.202Z,16.98
2022-07-27T03:35:42.057Z,16.90
2022-07-27T03:38:08.955Z,16.90
2022-07-27T03:40:38.596Z,16.90
2022-07-27T03:43:05.478Z,17.06
2022-07-27T03:45:34.895Z,17.06
2022-07-27T03:48:01.792Z,17.04
2022-07-27T03:50:28.738Z,16.76
2022-07-27T03:52:56.284Z,16.96
2022-07-27T03:55:23.150Z,16.88
2022-07-27T03:57:51.056Z,16.99
2022-07-27T04:00:18.772Z,17.03
2022-07-27T04:02:46.083Z,16.90
2022-07-27T04:05:15.964Z,16.96
2022-07-27T04:07:42.882Z,16.93
2022-07-27T04:10:12.309Z,17.12
2022-07-27T04:12:41.479Z,17.07
2022-07-27T04:15:10.221Z,17.22
2022-07-27T04:17:54.375Z,17.28
2022-07-27T04:20:23.588Z,17.24
2022-07-27T04:22:53.041Z,17.20
2022-07-27T04:25:20.040Z,17.40
2022-07-27T04:27:47.679Z,17.50
2022-07-27T04:30:17.254Z,17.61
2022-07-27T04:32:44.116Z,17.50
2022-07-27T04:35:13.757Z,17.64
2022-07-27T04:37:58.657Z,17.65
2022-07-27T04:40:29.661Z,17.67
2022-07-27T04:42:59.868Z,17.62
2022-07-27T04:45:32.077Z,17.79
2022-07-27T04:47:59.350Z,17.86
2022-07-27T04:50:26.211Z,17.68
2022-07-27T04:52:53.089Z,17.68
2022-07-27T04:55:22.455Z,17.85
2022-07-27T04:57:50.088Z,17.81
2022-07-27T05:00:19.961Z,17.62
2022-07-27T05:02:49.366Z,17.62
2022-07-27T05:05:16.215Z,17.85
2022-07-27T05:07:43.089Z,17.72
2022-07-27T05:10:11.549Z,17.63
2022-07-27T05:12:40.273Z,17.77
2022-07-27T05:15:10.343Z,17.81
2022-07-27T05:17:37.374Z,17.94
2022-07-27T05:20:05.137Z,17.87
2022-07-27T05:22:35.080Z,17.89
2022-07-27T05:25:07.167Z,17.83
2022-07-27T05:27:34.392Z,17.97
2022-07-27T05:30:01.271Z,17.93
2022-07-27T05:32:33.716Z,18.19
2022-07-27T05:35:00.813Z,17.96
2022-07-27T05:37:27.705Z,18.19
2022-07-27T05:39:54.602Z,18.47
2022-07-27T05:42:24.457Z,18.57
2022-07-27T05:44:55.378Z,18.47
2022-07-27T05:47:22.305Z,18.54
2022-07-27T05:49:52.642Z,18.71
2022-07-27T05:52:20.551Z,18.61
2022-07-27T05:54:47.860Z,18.63
2022-07-27T05:57:16.781Z,18.61
2022-07-27T05:59:48.450Z,18.68
2022-07-27T06:02:15.320Z,18.87
2022-07-27T06:04:48.332Z,18.74
2022-07-27T06:07:33.478Z,18.92
2022-07-27T06:10:02.030Z,19.63
2022-07-27T06:12:30.083Z,19.25
2022-07-27T06:14:57.190Z,19.48
2022-07-27T06:17:24.524Z,19.60
2022-07-27T06:19:54.396Z,19.88
2022-07-27T06:22:21.399Z,19.97
2022-07-27T06:24:48.260Z,20.06
2022-07-27T06:27:17.721Z,20.44
2022-07-27T06:29:47.078Z,20.60
2022-07-27T06:32:18.811Z,20.44
2022-07-27T06:34:46.030Z,20.26
2022-07-27T06:37:14.715Z,20.39
2022-07-27T06:39:41.664Z,20.78
2022-07-27T06:42:08.849Z,20.93
2022-07-27T06:44:38.138Z,21.35
2022-07-27T06:47:05.111Z,21.59
2022-07-27T06:49:34.593Z,21.59
2022-07-27T06:52:01.592Z,21.11
2022-07-27T06:54:30.774Z,21.38
2022-07-27T06:56:57.656Z,21.00
2022-07-27T06:59:24.534Z,21.07
2022-07-27T07:02:10.103Z,21.48
2022-07-27T07:04:39.995Z,21.50
2022-07-27T07:07:09.049Z,21.56
2022-07-27T07:09:40.761Z,21.59
2022-07-27T07:12:09.980Z,21.57
2022-07-27T07:14:36.929Z,21.95
2022-07-27T07:17:03.850Z,22.42
2022-07-27T07:19:35.426Z,22.37
2022-07-27T07:22:07.052Z,22.37
2022-07-27T07:24:41.020Z,22.69
2022-07-27T07:27:07.968Z,22.94
2022-07-27T07:29:34.963Z,22.92
2022-07-27T07:32:01.917Z,22.52
2022-07-27T07:34:29.609Z,22.54
2022-07-27T07:36:58.544Z,22.26
2022-07-27T07:39:31.022Z,22.41
2022-07-27T07:41:58.505Z,22.50
2022-07-27T07:44:30.145Z,22.94
2022-07-27T07:46:57.952Z,22.73
2022-07-27T07:49:39.597Z,22.65
2022-07-27T07:52:14.918Z,22.85
2022-07-27T07:54:45.434Z,22.92
2022-07-27T07:57:12.489Z,23.08
2022-07-27T07:59:41.434Z,23.03
2022-07-27T08:02:15.117Z,23.38
2022-07-27T08:04:42.030Z,23.35
2022-07-27T08:07:13.876Z,22.96
2022-07-27T08:09:47.844Z,22.71
2022-07-27T08:12:14.794Z,22.50
2022-07-27T08:14:46.323Z,22.05
2022-07-27T08:17:13.397Z,21.32
2022-07-27T08:19:42.770Z,21.42
2022-07-27T08:22:11.769Z,21.21
2022-07-27T08:24:38.700Z,21.26
2022-07-27T08:27:05.609Z,21.44
2022-07-27T08:29:36.558Z,21.73
2022-07-27T08:32:07.486Z,21.89
2022-07-27T08:34:36.688Z,21.94
2022-07-27T08:37:06.022Z,22.49
2022-07-27T08:40:37.512Z,22.74
2022-07-27T08:42:22.893Z,22.99
2022-07-27T08:44:52.985Z,23.32
2022-07-27T08:47:21.706Z,23.57
2022-07-27T08:49:49.708Z,23.89
2022-07-27T08:52:20.055Z,23.96
2022-07-27T08:54:47.559Z,24.52
2022-07-27T08:57:14.587Z,24.79
2022-07-27T08:59:41.484Z,24.87
2022-07-27T09:02:14.085Z,24.66
2022-07-27T09:04:41.306Z,24.85
2022-07-27T09:07:10.557Z,24.76
2022-07-27T09:09:47.248Z,24.82
2022-07-27T09:12:17.251Z,24.80
2022-07-27T09:14:44.179Z,24.52
2022-07-27T09:17:47.880Z,24.41
2022-07-27T09:20:19.473Z,24.65
2022-07-27T09:22:56.227Z,24.74
2022-07-27T09:25:52.531Z,24.66
2022-07-27T09:28:15.734Z,25.01
2022-07-27T09:30:44.057Z,25.03
2022-07-27T09:33:17.197Z,25.06
2022-07-27T09:36:00.146Z,25.51
2022-07-27T09:38:27.068Z,25.46
2022-07-27T09:41:08.704Z,25.33
2022-07-27T09:44:29.647Z,25.19
2022-07-27T09:46:43.296Z,25.38
2022-07-27T09:49:38.081Z,25.13
2022-07-27T09:52:05.476Z,24.14
2022-07-27T09:54:47.473Z,24.82
2022-07-27T09:57:14.698Z,25.22
2022-07-27T09:59:41.933Z,25.35
2022-07-27T10:02:09.183Z,25.03
2022-07-27T10:04:36.181Z,25.14
2022-07-27T10:07:07.125Z,24.92
2022-07-27T10:09:37.714Z,24.48
2022-07-27T10:12:04.976Z,24.20
2022-07-27T10:14:33.291Z,24.06
2022-07-27T10:17:00.448Z,24.21
2022-07-27T10:19:49.862Z,24.56
2022-07-27T10:22:41.956Z,25.55
2022-07-27T10:25:13.496Z,26.15
2022-07-27T10:27:50.617Z,26.25
2022-07-27T10:30:24.048Z,25.92
2022-07-27T10:32:54.658Z,26.24
2022-07-27T10:35:46.845Z,26.40
2022-07-27T10:38:18.363Z,26.66
2022-07-27T10:41:20.868Z,26.68
2022-07-27T10:43:50.367Z,26.48
2022-07-27T10:46:21.270Z,25.43
2022-07-27T10:48:50.794Z,25.64
2022-07-27T10:51:41.505Z,26.23
2022-07-27T10:54:27.664Z,26.60
2022-07-27T10:56:59.072Z,27.09
2022-07-27T11:00:09.126Z,27.31
2022-07-27T11:02:42.002Z,27.82
2022-07-27T11:05:37.914Z,27.79
2022-07-27T11:08:47.306Z,27.33
2022-07-27T11:10:48.382Z,27.19
2022-07-27T11:13:21.123Z,27.11
2022-07-27T11:16:15.540Z,26.88
2022-07-27T11:18:57.311Z,26.48
2022-07-27T11:21:31.569Z,26.49
2022-07-27T11:24:18.854Z,26.96
2022-07-27T11:26:55.148Z,26.97
2022-07-27T11:29:24.738Z,27.09
2022-07-27T11:31:57.067Z,26.87
2022-07-27T11:34:37.329Z,26.43
2022-07-27T11:37:19.102Z,26.68
2022-07-27T11:40:03.369Z,27.00
2022-07-27T11:42:40.986Z,26.90
2022-07-27T11:45:11.079Z,26.86
2022-07-27T11:47:37.992Z,26.75
2022-07-27T11:50:11.648Z,26.94
2022-07-27T11:52:38.767Z,26.37
2022-07-27T11:55:08.829Z,25.70
2022-07-27T11:57:39.880Z,25.65
2022-07-27T12:00:08.051Z,25.77
2022-07-27T12:02:37.147Z,25.95
2022-07-27T12:05:10.545Z,26.27
2022-07-27T12:07:41.738Z,26.93
2022-07-27T12:10:13.379Z,26.98
2022-07-27T12:12:40.263Z,26.27
2022-07-27T12:15:45.801Z,25.80
2022-07-27T12:18:07.191Z,25.62
2022-07-27T12:20:37.222Z,25.58
2022-07-27T12:23:09.383Z,26.14
2022-07-27T12:25:39.002Z,26.45
2022-07-27T12:28:15.487Z,26.56
2022-07-27T12:30:51.955Z,27.18
2022-07-27T12:33:37.747Z,27.32
2022-07-27T12:36:07.241Z,27.55
2022-07-27T12:38:52.312Z,27.53
2022-07-27T12:41:31.351Z,28.25
2022-07-27T12:44:18.789Z,27.57
2022-07-27T12:47:01.904Z,26.73
2022-07-27T12:49:46.140Z,26.37
2022-07-27T12:52:13.369Z,26.57
2022-07-27T12:54:40.283Z,26.64
2022-07-27T12:57:09.724Z,26.93
2022-07-27T12:59:36.611Z,27.02
2022-07-27T13:02:03.637Z,26.50
2022-07-27T13:04:30.698Z,26.11
2022-07-27T13:06:59.675Z,26.24
2022-07-27T13:10:03.175Z,26.95
2022-07-27T13:12:14.449Z,27.84
2022-07-27T13:14:44.009Z,27.59
2022-07-27T13:17:13.504Z,26.75
2022-07-27T13:19:40.408Z,26.29
2022-07-27T13:22:09.493Z,26.49
2022-07-27T13:24:41.014Z,26.71
2022-07-27T13:27:11.590Z,26.93
2022-07-27T13:29:38.470Z,26.44
2022-07-27T13:32:06.359Z,26.25
2022-07-27T13:34:33.373Z,26.29
2022-07-27T13:37:00.248Z,26.35
2022-07-27T13:39:27.151Z,26.60
2022-07-27T13:41:56.560Z,26.51
2022-07-27T13:44:58.377Z,26.52
2022-07-27T13:47:17.745Z,26.17
2022-07-27T13:49:47.149Z,26.33
2022-07-27T13:52:16.479Z,26.74
2022-07-27T13:54:43.410Z,26.92
2022-07-27T13:57:10.263Z,26.68
2022-07-27T13:59:37.151Z,26.49
2022-07-27T14:02:04.167Z,26.53
2022-07-27T14:04:35.712Z,26.66
2022-07-27T14:07:06.909Z,27.06
2022-07-27T14:09:52.276Z,27.33
2022-07-27T14:12:19.263Z,26.91
2022-07-27T14:14:46.228Z,26.92
2022-07-27T14:17:15.401Z,26.95
2022-07-27T14:19:42.293Z,26.76
2022-07-27T14:22:11.352Z,26.83
2022-07-27T14:24:39.443Z,26.40
2022-07-27T14:27:06.817Z,26.15
2022-07-27T14:29:34.564Z,26.19
2022-07-27T14:32:01.923Z,26.05
2022-07-27T14:34:29.209Z,26.38
2022-07-27T14:36:58.460Z,26.68
2022-07-27T14:39:25.339Z,26.54
2022-07-27T14:41:52.217Z,26.69
2022-07-27T14:44:19.220Z,26.44
2022-07-27T14:46:47.002Z,26.14
2022-07-27T14:49:16.463Z,25.90
2022-07-27T14:51:43.459Z,25.98
2022-07-27T14:54:10.549Z,26.13
2022-07-27T14:56:42.065Z,26.38
2022-07-27T14:59:12.143Z,26.57
2022-07-27T15:01:40.704Z,26.47
2022-07-27T15:04:07.780Z,26.30
2022-07-27T15:06:38.880Z,26.12
2022-07-27T15:09:08.479Z,26.00
2022-07-27T15:11:35.452Z,25.95
2022-07-27T15:14:05.202Z,26.18
2022-07-27T15:16:32.929Z,25.69
2022-07-27T15:19:04.721Z,25.58
2022-07-27T15:21:31.620Z,25.59
2022-07-27T15:23:58.450Z,25.74
2022-07-27T15:26:28.369Z,25.33
2022-07-27T15:28:57.516Z,25.51
2022-07-27T15:31:26.100Z,25.58
2022-07-27T15:33:53.110Z,25.69
2022-07-27T15:36:33.203Z,25.53
2022-07-27T15:39:02.301Z,25.46
2022-07-27T15:41:29.912Z,25.14
2022-07-27T15:44:01.191Z,25.11
2022-07-27T15:46:28.268Z,25.42
2022-07-27T15:48:56.067Z,25.35
2022-07-27T15:51:22.954Z,25.48
2022-07-27T15:53:49.886Z,25.06
2022-07-27T15:56:16.920Z,25.03
2022-07-27T15:58:43.748Z,24.88
2022-07-27T16:01:13.790Z,24.74
2022-07-27T16:03:43.660Z,25.03
2022-07-27T16:06:20.125Z,24.88
2022-07-27T16:08:49.929Z,24.80
2022-07-27T16:11:19.405Z,24.77
2022-07-27T16:13:48.773Z,24.89
2022-07-27T16:16:30.293Z,24.57
2022-07-27T16:19:13.419Z,24.78
2022-07-27T16:21:54.119Z,24.61
2022-07-27T16:24:24.781Z,24.58
2022-07-27T16:26:53.886Z,24.59
2022-07-27T16:29:20.896Z,24.65
2022-07-27T16:31:50.518Z,24.63
2022-07-27T16:34:17.437Z,24.48
2022-07-27T16:36:48.949Z,24.58
2022-07-27T16:39:16.428Z,24.60
2022-07-27T16:41:43.943Z,24.44
2022-07-27T16:44:13.139Z,24.57
2022-07-27T16:46:42.462Z,24.53
2022-07-27T16:49:09.640Z,24.21
2022-07-27T16:51:36.810Z,24.18
2022-07-27T16:54:05.011Z,24.46
2022-07-27T16:56:32.554Z,24.33
2022-07-27T16:58:59.424Z,24.24
2022-07-27T17:01:27.076Z,24.21
2022-07-27T17:03:57.485Z,24.35
2022-07-27T17:06:26.400Z,24.17
2022-07-27T17:08:53.928Z,24.27
2022-07-27T17:11:22.407Z,24.31
2022-07-27T17:13:51.276Z,24.08
2022-07-27T17:16:28.924Z,24.28
2022-07-27T17:19:00.400Z,24.58
2022-07-27T17:21:27.253Z,24.45
2022-07-27T17:23:56.693Z,24.16
2022-07-27T17:26:24.884Z,23.93
2022-07-27T17:28:55.132Z,23.86
2022-07-27T17:31:23.012Z,23.46
2022-07-27T17:33:52.911Z,23.33
2022-07-27T17:36:23.030Z,23.32
2022-07-27T17:38:50.755Z,23.28
2022-07-27T17:41:24.123Z,23.43
2022-07-27T17:43:53.573Z,23.47
2022-07-27T17:46:23.188Z,23.16
2022-07-27T17:48:51.614Z,23.23
2022-07-27T17:51:18.885Z,23.17
2022-07-27T17:53:46.588Z,23.34
2022-07-27T17:56:13.789Z,23.19
2022-07-27T17:58:42.863Z,22.92
2022-07-27T18:01:09.804Z,22.86
2022-07-27T18:03:36.955Z,22.73
2022-07-27T18:06:06.961Z,22.75
2022-07-27T18:08:34.891Z,22.83
2022-07-27T18:11:02.195Z,22.75
2022-07-27T18:13:39.185Z,22.54
2022-07-27T18:16:13.281Z,22.56
2022-07-27T18:18:42.091Z,22.58
2022-07-27T18:21:09.418Z,22.54
2022-07-27T18:23:39.167Z,22.43
2022-07-27T18:26:06.732Z,22.35
2022-07-27T18:28:40.126Z,22.26
2022-07-27T18:31:09.950Z,21.97
2022-07-27T18:33:45.887Z,21.93
2022-07-27T18:36:14.742Z,21.77
2022-07-27T18:38:45.074Z,21.79
2022-07-27T18:41:17.465Z,21.70
2022-07-27T18:43:52.410Z,21.78
2022-07-27T18:46:23.598Z,21.78
2022-07-27T18:48:50.839Z,21.62
2022-07-27T18:51:17.879Z,21.61
2022-07-27T18:53:48.822Z,21.58
2022-07-27T18:56:19.138Z,21.51
2022-07-27T18:58:48.851Z,21.65
2022-07-27T19:01:18.319Z,21.73
2022-07-27T19:03:47.760Z,21.74
2022-07-27T19:06:17.238Z,21.60
2022-07-27T19:08:49.107Z,21.58
2022-07-27T19:11:16.065Z,21.44
2022-07-27T19:13:44.497Z,21.20
2022-07-27T19:16:11.440Z,21.27
2022-07-27T19:18:41.487Z,21.11
2022-07-27T19:21:10.483Z,21.09
2022-07-27T19:23:37.372Z,21.02
2022-07-27T19:26:10.151Z,21.07
2022-07-27T19:28:38.179Z,21.12
2022-07-27T19:31:05.515Z,21.10
2022-07-27T19:33:37.120Z,20.95
2022-07-27T19:36:06.595Z,20.96
2022-07-27T19:38:33.524Z,20.94
2022-07-27T19:41:00.481Z,20.87
2022-07-27T19:43:28.729Z,20.78
2022-07-27T19:45:55.617Z,20.79
2022-07-27T19:48:29.594Z,20.67
2022-07-27T19:51:06.411Z,20.40
2022-07-27T19:53:36.811Z,20.46
2022-07-27T19:56:04.106Z,20.29
2022-07-27T19:58:35.713Z,20.17
2022-07-27T20:01:09.558Z,19.99
2022-07-27T20:03:48.684Z,19.95
2022-07-27T20:06:24.316Z,19.87
2022-07-27T20:08:59.372Z,19.88
2022-07-27T20:11:28.296Z,19.79
2022-07-27T20:13:55.225Z,19.89
2022-07-27T20:16:22.261Z,19.90
2022-07-27T20:18:52.475Z,19.88
2022-07-27T20:21:22.794Z,19.86
2022-07-27T20:23:54.463Z,19.77
2022-07-27T20:26:21.549Z,19.74
2022-07-27T20:28:49.873Z,19.74
2022-07-27T20:31:19.397Z,19.62
2022-07-27T20:33:46.648Z,19.52
2022-07-27T20:36:13.509Z,19.33
2022-07-27T20:38:40.447Z,19.34
2022-07-27T20:41:07.334Z,19.43
2022-07-27T20:43:36.759Z,19.41
2022-07-27T20:46:06.185Z,19.21
2022-07-27T20:48:35.580Z,19.21
2022-07-27T20:51:02.503Z,19.16
2022-07-27T20:53:32.821Z,19.09
2022-07-27T20:56:02.089Z,18.96
2022-07-27T20:58:32.032Z,18.99
2022-07-27T21:01:01.138Z,18.78
2022-07-27T21:03:30.534Z,18.67
2022-07-27T21:05:57.498Z,18.71
2022-07-27T21:08:24.662Z,18.77
2022-07-27T21:11:00.151Z,18.60
2022-07-27T21:13:29.224Z,18.63
2022-07-27T21:15:56.066Z,18.54
2022-07-27T21:18:25.488Z,18.55
2022-07-27T21:20:52.318Z,18.44
2022-07-27T21:23:41.086Z,18.39
2022-07-27T21:26:12.474Z,18.49
2022-07-27T21:28:45.940Z,18.42
2022-07-27T21:31:15.329Z,18.36
2022-07-27T21:33:42.364Z,18.27
2022-07-27T21:36:09.284Z,18.45
2022-07-27T21:38:40.840Z,18.37
2022-07-27T21:41:10.138Z,18.25
2022-07-27T21:43:39.617Z,18.17
2022-07-27T21:46:09.124Z,18.19
2022-07-27T21:48:36.159Z,18.15
2022-07-27T21:51:06.012Z,18.30
2022-07-27T21:53:35.666Z,18.25
2022-07-27T21:56:05.759Z,18.25
2022-07-27T21:58:35.162Z,18.16
2022-07-27T22:01:04.597Z,18.21
2022-07-27T22:03:31.584Z,17.98
2022-07-27T22:05:58.457Z,17.92
2022-07-27T22:08:26.343Z,18.04
2022-07-27T22:10:55.884Z,17.90
2022-07-27T22:13:27.341Z,17.62
2022-07-27T22:15:56.693Z,17.65
2022-07-27T22:18:26.096Z,17.81
2022-07-27T22:20:53.018Z,17.72
2022-07-27T22:23:22.644Z,17.68
2022-07-27T22:25:49.599Z,17.55
2022-07-27T22:28:25.500Z,17.66
2022-07-27T22:31:21.161Z,17.69
2022-07-27T22:33:47.128Z,17.63
2022-07-27T22:36:14.083Z,17.65
2022-07-27T22:38:41.037Z,17.62
2022-07-27T22:41:10.435Z,17.50
2022-07-27T22:43:37.426Z,17.44
2022-07-27T22:46:05.705Z,17.21
2022-07-27T22:48:35.250Z,17.39
2022-07-27T22:51:04.713Z,17.16
2022-07-27T22:53:31.634Z,16.88
2022-07-27T22:55:58.516Z,16.49
2022-07-27T22:58:28.067Z,16.39
2022-07-27T23:00:59.369Z,16.42
2022-07-27T23:03:29.074Z,16.47
2022-07-27T23:05:55.929Z,16.51
2022-07-27T23:08:22.923Z,16.48
2022-07-27T23:10:54.682Z,16.45
2022-07-27T23:13:23.704Z,16.64
2022-07-27T23:15:55.567Z,16.60
2022-07-27T23:18:25.685Z,16.72
2022-07-27T23:20:53.369Z,16.72
2022-07-27T23:23:22.877Z,16.49
2022-07-27T23:25:57.026Z,16.59
2022-07-27T23:28:24.805Z,16.46
2022-07-27T23:30:51.659Z,16.41
2022-07-27T23:33:21.295Z,16.27
2022-07-27T23:35:48.207Z,16.32
2022-07-27T23:38:17.602Z,16.33
2022-07-27T23:40:44.449Z,16.22
2022-07-27T23:43:14.408Z,16.21
2022-07-27T23:45:41.290Z,16.19
2022-07-27T23:48:08.362Z,16.22
2022-07-27T23:50:41.316Z,16.02
2022-07-27T23:53:09.016Z,16.17
2022-07-27T23:55:36.352Z,15.92
2022-07-27T23:58:03.453Z,15.78
